Time;durP1;ratioP1;P1;durP2;ratioP2;P2;SDS_P1;SDS_P2;PMS_P1;PMS_P2;Temp;Humidity;BMP_temperature;BMP_pressure;BME280_temperature;BME280_humidity;BME280_pressure;Samples;Min_cycle;Max_cycle;Signal;HPM_P1;HPM_P2
2023/03/16 00:02:10;;;;;;;14.63;5.87;;;1.40;1.00;;;;;;4952533;29;20277;-65
2023/03/16 00:04:38;;;;;;;8.23;5.50;;;1.40;1.00;;;;;;4951174;28;20702;-65
2023/03/16 00:07:08;;;;;;;7.40;4.97;;;1.30;1.00;;;;;;4954981;28;20201;-67
2023/03/16 00:09:39;;;;;;;10.47;5.70;;;1.30;1.00;;;;;;4946457;28;20778;-66
2023/03/16 00:12:14;;;;;;;7.63;4.70;;;1.30;1.00;;;;;;4953190;28;20229;-68
2023/03/16 00:14:43;;;;;;;9.70;5.00;;;1.20;1.00;;;;;;4952340;29;20195;-66
2023/03/16 00:17:18;;;;;;;7.77;4.80;;;1.20;1.00;;;;;;4954245;29;20195;-66
2023/03/16 00:19:56;;;;;;;9.67;5.10;;;1.10;1.00;;;;;;4945859;28;20686;-66
2023/03/16 00:22:28;;;;;;;8.90;4.73;;;1.00;1.00;;;;;;4954174;28;20245;-67
2023/03/16 00:24:55;;;;;;;7.73;5.03;;;1.00;1.00;;;;;;4950595;29;20215;-66
2023/03/16 00:27:24;;;;;;;6.93;5.07;;;1.10;1.00;;;;;;4952140;28;20230;-64
2023/03/16 00:29:55;;;;;;;8.73;4.57;;;1.20;1.00;;;;;;4953268;28;20217;-64
2023/03/16 00:32:28;;;;;;;6.60;4.60;;;1.20;1.00;;;;;;4969862;28;20226;-68
2023/03/16 00:34:58;;;;;;;5.43;4.10;;;1.10;1.00;;;;;;4968200;28;20733;-65
2023/03/16 00:37:26;;;;;;;10.33;4.50;;;1.10;1.00;;;;;;4953935;29;20203;-65
2023/03/16 00:39:57;;;;;;;11.30;4.50;;;1.00;1.00;;;;;;4966989;28;20628;-64
2023/03/16 00:42:27;;;;;;;6.20;4.37;;;1.00;1.00;;;;;;4969098;28;20215;-64
2023/03/16 00:44:56;;;;;;;7.40;4.67;;;1.00;1.00;;;;;;4946685;29;20195;-64
2023/03/16 00:47:32;;;;;;;7.93;4.17;;;0.90;1.00;;;;;;4945560;29;20620;-66
2023/03/16 00:50:00;;;;;;;10.40;4.60;;;0.90;1.00;;;;;;4952148;29;20214;-66
2023/03/16 00:52:28;;;;;;;8.20;4.43;;;0.90;1.00;;;;;;4967725;28;20219;-64
2023/03/16 00:54:56;;;;;;;7.17;4.13;;;0.90;1.00;;;;;;4952292;28;20691;-64
2023/03/16 00:57:26;;;;;;;7.43;4.13;;;0.80;1.00;;;;;;4969503;28;20210;-64
2023/03/16 00:59:54;;;;;;;9.27;5.30;;;0.80;1.00;;;;;;4947364;29;20286;-67
2023/03/16 01:02:24;;;;;;;8.10;4.77;;;0.90;1.00;;;;;;4953378;29;20234;-64
2023/03/16 01:04:53;;;;;;;8.27;4.40;;;0.90;1.00;;;;;;4945072;29;20723;-64
2023/03/16 01:07:20;;;;;;;10.37;5.07;;;0.90;1.00;;;;;;4954741;29;21004;-64
2023/03/16 01:09:47;;;;;;;6.97;4.23;;;0.90;1.00;;;;;;4951802;29;20258;-66
2023/03/16 01:12:17;;;;;;;6.87;3.97;;;0.90;1.00;;;;;;4951844;28;20301;-66
2023/03/16 01:14:44;;;;;;;6.00;4.30;;;0.90;1.00;;;;;;4951272;29;20238;-64
2023/03/16 01:17:13;;;;;;;8.17;4.83;;;0.80;1.00;;;;;;4951599;29;20247;-63
2023/03/16 01:19:40;;;;;;;9.07;4.57;;;0.80;1.00;;;;;;4967821;28;20290;-64
2023/03/16 01:22:09;;;;;;;5.73;3.97;;;0.70;1.00;;;;;;4968029;28;20202;-63
2023/03/16 01:24:38;;;;;;;10.63;4.47;;;0.60;1.00;;;;;;4951882;28;20230;-63
2023/03/16 01:27:07;;;;;;;10.97;4.73;;;0.60;1.00;;;;;;4952746;29;21117;-63
2023/03/16 01:29:34;;;;;;;6.63;4.10;;;0.50;1.00;;;;;;4949685;28;20199;-63
2023/03/16 01:32:03;;;;;;;7.67;4.47;;;0.30;1.00;;;;;;4950580;28;20195;-63
2023/03/16 01:34:31;;;;;;;6.40;4.43;;;0.20;1.00;;;;;;4951309;29;20573;-64
2023/03/16 01:36:59;;;;;;;8.73;4.83;;;0.20;1.00;;;;;;4952863;29;20191;-63
2023/03/16 01:39:34;;;;;;;7.73;4.13;;;0.30;1.00;;;;;;4950853;29;20285;-64
2023/03/16 01:42:02;;;;;;;6.07;4.17;;;0.40;1.00;;;;;;4950661;29;20258;-63
2023/03/16 01:44:56;;;;;;;8.03;4.83;;;0.40;1.00;;;;;;4951004;29;20211;-63
2023/03/16 01:47:29;;;;;;;7.07;4.33;;;0.30;1.00;;;;;;4953328;28;20201;-63
2023/03/16 01:49:56;;;;;;;7.43;4.03;;;0.40;1.00;;;;;;4952016;29;20219;-63
2023/03/16 01:52:32;;;;;;;8.07;4.47;;;0.40;1.00;;;;;;4950964;29;20231;-63
2023/03/16 01:55:04;;;;;;;9.37;4.20;;;0.40;1.00;;;;;;4947671;28;20561;-63
2023/03/16 01:57:35;;;;;;;11.23;4.70;;;0.40;1.00;;;;;;4966948;28;20199;-63
2023/03/16 02:00:18;;;;;;;6.57;3.83;;;0.50;1.00;;;;;;4950781;29;20199;-63
2023/03/16 02:03:09;;;;;;;6.93;3.73;;;0.50;1.00;;;;;;5007884;23;20236;-65
2023/03/16 02:06:13;;;;;;;10.27;5.33;;;0.50;1.00;;;;;;5007640;28;20245;-65
2023/03/16 02:08:47;;;;;;;12.00;7.93;;;0.60;1.00;;;;;;5001317;28;20237;-65
2023/03/16 02:11:18;;;;;;;11.13;7.03;;;0.80;1.00;;;;;;5005931;28;20240;-64
2023/03/16 02:14:01;;;;;;;14.07;7.63;;;0.70;1.00;;;;;;5007705;28;20311;-64
2023/03/16 02:16:29;;;;;;;10.60;7.53;;;0.70;1.00;;;;;;5009053;28;20275;-66
2023/03/16 02:18:56;;;;;;;8.67;5.33;;;0.60;1.00;;;;;;5008592;28;20201;-65
2023/03/16 02:21:31;;;;;;;49.77;29.03;;;0.60;1.00;;;;;;5007530;28;20204;-66
2023/03/16 02:24:02;;;;;;;10.43;6.37;;;0.60;1.00;;;;;;5006573;28;20304;-65
2023/03/16 02:26:50;;;;;;;8.90;6.17;;;0.60;1.00;;;;;;5005758;28;20205;-65
2023/03/16 02:30:00;;;;;;;7.20;4.23;;;0.70;1.00;;;;;;5007377;28;20216;-66
2023/03/16 02:32:33;;;;;;;7.63;4.37;;;0.70;1.00;;;;;;4968691;28;20222;-66
2023/03/16 02:35:01;;;;;;;6.43;3.90;;;0.60;1.00;;;;;;5001410;28;20205;-66
2023/03/16 02:37:28;;;;;;;7.80;4.90;;;0.60;1.00;;;;;;4989826;28;20200;-65
2023/03/16 02:39:55;;;;;;;6.73;4.07;;;0.70;1.00;;;;;;5004090;28;20197;-65
2023/03/16 02:42:25;;;;;;;9.97;4.90;;;0.70;1.00;;;;;;4989136;28;20209;-66
2023/03/16 02:44:57;;;;;;;7.57;4.23;;;0.70;1.00;;;;;;5006970;28;20771;-66
2023/03/16 02:47:40;;;;;;;7.27;4.27;;;0.70;1.00;;;;;;5007366;28;20204;-65
2023/03/16 02:50:09;;;;;;;8.77;4.27;;;0.80;1.00;;;;;;5007128;28;20208;-65
2023/03/16 02:52:37;;;;;;;8.30;4.60;;;0.80;1.00;;;;;;5008450;28;20218;-66
2023/03/16 02:55:06;;;;;;;8.80;3.90;;;0.80;1.00;;;;;;5023167;28;20223;-66
2023/03/16 02:57:33;;;;;;;7.13;4.20;;;0.90;1.00;;;;;;5006773;28;20262;-66
2023/03/16 03:00:17;;;;;;;6.03;4.23;;;0.90;1.00;;;;;;5007918;28;20262;-66
2023/03/16 03:02:47;;;;;;;6.00;4.00;;;1.00;1.00;;;;;;5003932;28;20240;-66
2023/03/16 03:05:14;;;;;;;9.57;4.17;;;1.00;1.00;;;;;;4987636;28;20237;-65
2023/03/16 03:07:41;;;;;;;6.03;4.17;;;1.00;1.00;;;;;;5002540;28;20233;-66
2023/03/16 03:10:09;;;;;;;10.67;3.67;;;1.10;1.00;;;;;;5002866;28;20533;-65
2023/03/16 03:12:36;;;;;;;8.60;3.47;;;1.10;1.00;;;;;;4987376;28;20205;-65
2023/03/16 03:15:07;;;;;;;5.67;3.50;;;1.20;1.00;;;;;;4987666;28;20206;-66
2023/03/16 03:17:44;;;;;;;8.40;3.80;;;1.30;1.00;;;;;;4987524;28;20616;-66
2023/03/16 03:20:16;;;;;;;5.43;3.63;;;1.40;1.00;;;;;;4987342;28;20205;-65
2023/03/16 03:22:46;;;;;;;3.57;3.13;;;1.50;1.00;;;;;;4988696;28;21057;-66
2023/03/16 03:25:15;;;;;;;8.37;3.40;;;1.50;1.00;;;;;;5002834;28;20560;-66
2023/03/16 03:27:44;;;;;;;5.17;3.17;;;1.50;1.00;;;;;;4988560;28;20604;-64
2023/03/16 03:30:20;;;;;;;7.83;3.10;;;1.50;1.00;;;;;;5002912;28;20229;-65
2023/03/16 03:32:47;;;;;;;6.77;3.30;;;1.60;1.00;;;;;;4986722;28;20252;-66
2023/03/16 03:35:17;;;;;;;5.63;3.27;;;1.70;1.00;;;;;;4987667;28;20206;-66
2023/03/16 03:37:44;;;;;;;5.77;3.60;;;1.70;1.00;;;;;;4970907;28;20288;-66
2023/03/16 03:40:15;;;;;;;5.73;3.07;;;1.70;1.00;;;;;;5003553;28;20248;-66
2023/03/16 03:42:45;;;;;;;7.33;3.30;;;1.70;1.00;;;;;;5002178;28;20194;-66
2023/03/16 03:45:13;;;;;;;8.00;3.67;;;1.80;1.00;;;;;;4987390;28;20238;-66
2023/03/16 03:47:42;;;;;;;3.53;3.00;;;1.90;1.00;;;;;;5002868;28;20202;-66
2023/03/16 03:50:13;;;;;;;7.03;2.90;;;1.90;1.00;;;;;;4988754;28;20631;-66
2023/03/16 03:52:50;;;;;;;12.67;3.80;;;2.00;1.00;;;;;;4986386;28;20701;-65
2023/03/16 03:55:17;;;;;;;6.67;3.47;;;1.90;1.00;;;;;;5002704;28;20202;-66
2023/03/16 03:57:44;;;;;;;6.57;3.27;;;2.00;1.00;;;;;;4987122;28;20512;-66
2023/03/16 04:00:12;;;;;;;6.43;3.27;;;2.10;1.00;;;;;;5003007;28;20312;-65
2023/03/16 04:02:40;;;;;;;5.57;3.27;;;2.20;1.00;;;;;;5002744;28;20728;-67
2023/03/16 04:05:16;;;;;;;11.47;3.40;;;2.30;1.00;;;;;;4985413;28;20252;-65
2023/03/16 04:07:44;;;;;;;6.20;2.70;;;2.50;1.00;;;;;;5002902;28;20178;-66
2023/03/16 04:10:13;;;;;;;6.40;3.30;;;2.60;1.00;;;;;;4983194;28;20573;-66
2023/03/16 04:12:42;;;;;;;5.20;3.30;;;2.70;1.00;;;;;;4984864;28;20680;-65
2023/03/16 04:15:11;;;;;;;4.03;2.60;;;2.70;1.00;;;;;;4983552;28;20216;-66
2023/03/16 04:18:07;;;;;;;4.27;2.93;;;2.80;1.00;;;;;;4986021;28;20254;-64
2023/03/16 04:20:35;;;;;;;3.80;2.70;;;2.90;1.00;;;;;;5000928;28;20324;-65
2023/03/16 04:23:03;;;;;;;9.60;3.00;;;2.90;1.00;;;;;;4987192;28;20721;-65
2023/03/16 04:25:33;;;;;;;6.67;3.03;;;2.70;1.00;;;;;;5000973;28;20280;-65
2023/03/16 04:28:00;;;;;;;5.33;3.10;;;2.70;1.00;;;;;;5000632;28;20201;-63
2023/03/16 04:30:30;;;;;;;10.50;3.60;;;2.60;1.00;;;;;;5003785;28;20687;-66
2023/03/16 04:33:09;;;;;;;4.80;2.97;;;2.60;1.00;;;;;;5007287;28;20313;-65
2023/03/16 04:35:36;;;;;;;8.83;3.13;;;2.60;1.00;;;;;;5005375;28;20220;-65
2023/03/16 04:38:03;;;;;;;8.20;3.27;;;2.60;1.00;;;;;;4987385;28;20193;-65
2023/03/16 04:40:39;;;;;;;7.73;3.07;;;2.60;1.00;;;;;;4989186;28;20263;-65
2023/03/16 04:43:12;;;;;;;9.93;4.27;;;2.60;1.00;;;;;;4987816;28;20212;-65
2023/03/16 04:45:41;;;;;;;4.77;2.90;;;2.60;1.00;;;;;;4989283;28;20206;-65
2023/03/16 04:48:09;;;;;;;4.53;3.30;;;2.60;1.00;;;;;;5006046;28;20210;-65
2023/03/16 04:50:37;;;;;;;5.10;3.00;;;2.60;1.00;;;;;;5006330;28;20596;-65
2023/03/16 04:53:04;;;;;;;6.63;2.90;;;2.60;1.00;;;;;;4987690;28;20225;-64
2023/03/16 04:55:31;;;;;;;4.13;3.10;;;2.70;1.00;;;;;;5003736;28;20636;-65
2023/03/16 04:58:00;;;;;;;4.60;3.00;;;2.80;1.00;;;;;;4970288;28;20843;-64
2023/03/16 05:00:32;;;;;;;4.10;2.70;;;2.90;1.00;;;;;;5001643;28;20268;-65
2023/03/16 05:03:05;;;;;;;8.33;3.10;;;3.00;1.00;;;;;;5001557;28;20260;-65
2023/03/16 05:05:33;;;;;;;4.43;2.70;;;3.00;1.00;;;;;;4987170;28;20211;-65
2023/03/16 05:08:00;;;;;;;4.37;2.87;;;3.00;1.00;;;;;;4985856;28;20200;-65
2023/03/16 05:10:32;;;;;;;4.83;3.07;;;3.10;1.00;;;;;;5002243;28;20212;-64
2023/03/16 05:13:00;;;;;;;4.90;2.43;;;3.10;1.00;;;;;;4988670;28;20210;-65
2023/03/16 05:15:27;;;;;;;5.70;2.60;;;3.10;1.00;;;;;;4988690;28;20189;-64
2023/03/16 05:17:59;;;;;;;5.27;3.00;;;3.20;1.00;;;;;;4987077;28;20214;-64
2023/03/16 05:20:26;;;;;;;3.10;2.63;;;3.20;1.00;;;;;;4989270;28;20726;-64
2023/03/16 05:22:57;;;;;;;5.93;2.70;;;3.30;1.00;;;;;;4987574;28;20210;-65
2023/03/16 05:25:28;;;;;;;9.70;2.80;;;3.40;1.00;;;;;;4986639;28;20209;-64
2023/03/16 05:27:57;;;;;;;4.20;2.73;;;3.40;1.00;;;;;;5005288;28;20309;-64
2023/03/16 05:30:41;;;;;;;3.57;2.50;;;3.30;1.00;;;;;;4987485;28;20207;-61
2023/03/16 05:33:12;;;;;;;5.57;2.33;;;3.40;1.00;;;;;;4987258;28;20205;-59
2023/03/16 05:35:39;;;;;;;3.60;2.60;;;3.40;1.00;;;;;;5003925;28;20201;-59
2023/03/16 05:38:10;;;;;;;5.10;2.70;;;3.50;1.00;;;;;;4968832;28;20198;-59
2023/03/16 05:40:39;;;;;;;5.53;2.47;;;3.50;1.00;;;;;;4985606;28;20275;-61
2023/03/16 05:43:14;;;;;;;5.20;2.43;;;3.50;1.00;;;;;;5002639;28;20209;-62
2023/03/16 05:45:47;;;;;;;5.50;2.47;;;3.50;1.00;;;;;;4983873;28;20192;-61
2023/03/16 05:48:16;;;;;;;4.40;2.53;;;3.30;1.00;;;;;;5003506;28;20206;-61
2023/03/16 05:50:49;;;;;;;6.13;2.60;;;3.40;1.00;;;;;;5001831;28;20400;-60
2023/03/16 05:53:19;;;;;;;8.40;3.90;;;3.40;1.00;;;;;;4970964;28;20229;-60
2023/03/16 05:55:53;;;;;;;9.50;3.33;;;3.40;1.00;;;;;;4970608;28;20201;-59
2023/03/16 05:58:20;;;;;;;6.13;2.67;;;3.40;1.00;;;;;;5003305;28;20703;-59
2023/03/16 06:00:49;;;;;;;6.23;2.63;;;3.50;1.00;;;;;;5003557;28;20289;-58
2023/03/16 06:03:22;;;;;;;5.43;2.67;;;3.60;1.00;;;;;;4986859;28;20239;-59
2023/03/16 06:05:52;;;;;;;7.27;3.10;;;3.60;1.00;;;;;;4986752;28;20295;-61
2023/03/16 06:08:27;;;;;;;4.30;2.57;;;3.50;1.00;;;;;;4987797;28;20205;-60
2023/03/16 06:10:59;;;;;;;4.30;2.93;;;3.60;1.00;;;;;;4987152;28;20864;-60
2023/03/16 06:13:26;;;;;;;5.43;3.13;;;3.60;1.00;;;;;;4989292;28;20204;-59
2023/03/16 06:15:53;;;;;;;6.57;3.90;;;3.60;1.00;;;;;;4988441;28;20255;-59
2023/03/16 06:18:21;;;;;;;6.63;3.83;;;3.70;1.00;;;;;;4989089;28;20210;-59
2023/03/16 06:20:48;;;;;;;7.77;3.20;;;3.80;1.00;;;;;;4971526;28;20324;-59
2023/03/16 06:23:19;;;;;;;4.33;3.00;;;3.80;1.00;;;;;;5004610;28;20205;-62
2023/03/16 06:25:49;;;;;;;7.93;3.10;;;3.90;1.00;;;;;;5005310;28;20205;-60
2023/03/16 06:28:21;;;;;;;6.17;3.27;;;3.90;1.00;;;;;;4988827;28;20723;-66
2023/03/16 06:30:51;;;;;;;5.73;3.17;;;3.90;1.00;;;;;;4988081;28;20224;-65
2023/03/16 06:33:19;;;;;;;5.57;2.87;;;4.00;1.00;;;;;;5002401;28;20574;-64
2023/03/16 06:35:48;;;;;;;5.77;3.23;;;4.10;1.00;;;;;;4985938;28;20202;-64
2023/03/16 06:38:23;;;;;;;6.17;3.17;;;4.20;1.00;;;;;;4973003;28;20201;-65
2023/03/16 06:41:00;;;;;;;8.00;2.93;;;4.20;1.00;;;;;;4973159;28;20219;-63
2023/03/16 06:43:28;;;;;;;6.37;2.90;;;4.20;1.00;;;;;;4989578;28;20197;-64
2023/03/16 06:45:55;;;;;;;2.90;2.07;;;4.30;1.00;;;;;;5004488;28;20310;-65
2023/03/16 06:48:22;;;;;;;7.83;2.67;;;4.30;1.00;;;;;;5004216;28;20228;-65
2023/03/16 06:50:49;;;;;;;4.03;2.07;;;4.30;1.00;;;;;;4997176;28;20202;-65
2023/03/16 06:53:21;;;;;;;4.57;2.43;;;4.50;1.00;;;;;;4987366;28;20205;-64
2023/03/16 06:55:49;;;;;;;6.40;2.40;;;4.70;1.00;;;;;;4985664;28;20204;-65
2023/03/16 06:58:16;;;;;;;5.37;2.53;;;4.80;1.00;;;;;;4987004;28;20721;-64
2023/03/16 07:00:45;;;;;;;7.63;2.50;;;5.00;1.00;;;;;;4988434;28;20213;-65
2023/03/16 07:03:12;;;;;;;4.93;2.50;;;5.00;1.00;;;;;;5003496;28;20240;-65
2023/03/16 07:05:45;;;;;;;5.63;2.27;;;5.20;1.00;;;;;;4988044;28;20201;-65
2023/03/16 07:08:14;;;;;;;4.47;2.00;;;5.50;1.00;;;;;;4988019;28;20213;-66
2023/03/16 07:10:41;;;;;;;3.43;2.20;;;5.60;1.00;;;;;;4986267;28;20678;-59
2023/03/16 07:13:08;;;;;;;4.87;1.90;;;5.70;1.00;;;;;;5002895;28;20304;-59
2023/03/16 07:15:35;;;;;;;3.33;1.90;;;6.00;1.00;;;;;;4988281;28;20263;-61
2023/03/16 07:18:02;;;;;;;4.80;2.00;;;6.20;1.00;;;;;;4987675;28;20205;-61
2023/03/16 07:20:31;;;;;;;2.23;1.93;;;5.90;1.00;;;;;;5001932;28;20194;-61
2023/03/16 07:23:01;;;;;;;7.00;2.53;;;6.10;1.00;;;;;;4986794;28;20620;-63
2023/03/16 07:25:29;;;;;;;3.13;1.80;;;6.30;1.00;;;;;;5002014;28;20621;-60
2023/03/16 07:27:56;;;;;;;3.83;2.27;;;6.70;1.00;;;;;;4986349;28;20676;-58
2023/03/16 07:30:28;;;;;;;4.17;2.10;;;6.50;1.00;;;;;;4987155;28;20196;-61
2023/03/16 07:32:56;;;;;;;2.80;2.50;;;6.60;1.00;;;;;;4987733;28;20221;-59
2023/03/16 07:35:25;;;;;;;5.67;3.07;;;6.60;1.00;;;;;;4986835;28;20222;-60
2023/03/16 07:37:53;;;;;;;3.43;2.20;;;6.50;1.00;;;;;;4987059;28;20216;-60
2023/03/16 07:40:20;;;;;;;4.27;2.90;;;6.60;1.00;;;;;;4986733;28;20189;-60
2023/03/16 07:42:48;;;;;;;5.50;2.60;;;6.50;1.00;;;;;;5001705;28;20202;-59
2023/03/16 07:45:25;;;;;;;4.10;2.30;;;6.30;1.00;;;;;;5002461;28;20300;-59
2023/03/16 07:47:53;;;;;;;2.70;2.40;;;6.30;1.00;;;;;;4986585;28;20209;-58
2023/03/16 07:50:34;;;;;;;6.40;2.70;;;6.60;1.00;;;;;;4986975;28;20328;-60
2023/03/16 07:53:04;;;;;;;7.10;3.90;;;6.80;1.00;;;;;;4989178;28;20205;-59
2023/03/16 07:55:35;;;;;;;4.03;2.47;;;6.70;1.00;;;;;;4999516;28;20298;-58
2023/03/16 07:58:05;;;;;;;6.63;2.70;;;6.50;1.00;;;;;;4984442;28;20201;-60
2023/03/16 08:00:34;;;;;;;4.90;2.80;;;6.50;1.00;;;;;;5005033;28;20466;-61
2023/03/16 08:03:01;;;;;;;4.90;2.43;;;6.70;1.00;;;;;;4984786;28;20287;-60
2023/03/16 08:05:31;;;;;;;3.33;2.40;;;7.00;1.00;;;;;;4998739;28;20201;-59
2023/03/16 08:08:00;;;;;;;3.63;2.40;;;7.40;1.00;;;;;;5002306;28;20433;-60
2023/03/16 08:10:30;;;;;;;6.27;2.40;;;7.30;1.00;;;;;;4988115;28;20210;-60
2023/03/16 08:13:04;;;;;;;3.83;2.57;;;7.80;1.00;;;;;;5006231;28;20204;-60
2023/03/16 08:15:33;;;;;;;4.43;2.70;;;7.30;1.00;;;;;;4988948;28;20284;-61
2023/03/16 08:18:09;;;;;;;3.83;2.60;;;7.10;1.00;;;;;;4986712;28;20289;-60
2023/03/16 08:20:36;;;;;;;5.53;2.60;;;7.00;1.00;;;;;;4990365;28;20375;-62
2023/03/16 08:23:03;;;;;;;5.77;2.50;;;7.00;1.00;;;;;;4990976;28;20709;-59
2023/03/16 08:25:38;;;;;;;4.73;2.60;;;7.10;1.00;;;;;;4988961;28;20209;-60
2023/03/16 08:28:10;;;;;;;7.13;2.67;;;7.10;1.00;;;;;;4984907;28;20681;-60
2023/03/16 08:30:50;;;;;;;3.73;2.30;;;7.00;1.00;;;;;;5004445;28;20212;-60
2023/03/16 08:33:45;;;;;;;3.23;2.67;;;7.20;1.00;;;;;;5000168;28;20323;-60
2023/03/16 08:36:17;;;;;;;5.67;4.03;;;7.60;1.00;;;;;;5005232;28;20209;-62
2023/03/16 08:38:48;;;;;;;4.83;3.40;;;7.70;1.00;;;;;;4987873;28;20514;-58
2023/03/16 08:41:36;;;;;;;3.40;2.77;;;7.90;1.00;;;;;;4991034;28;20672;-59
2023/03/16 08:44:11;;;;;;;3.50;2.20;;;7.90;1.00;;;;;;4987714;28;20277;-59
2023/03/16 08:46:41;;;;;;;7.03;2.70;;;7.80;1.00;;;;;;4988816;28;20296;-60
2023/03/16 08:49:09;;;;;;;3.90;2.27;;;7.70;1.00;;;;;;5004878;28;20227;-60
2023/03/16 08:51:38;;;;;;;6.40;2.50;;;7.90;1.00;;;;;;4999085;28;20205;-61
2023/03/16 08:54:06;;;;;;;2.53;2.33;;;8.30;1.00;;;;;;5003770;28;20736;-60
2023/03/16 08:56:33;;;;;;;3.03;2.40;;;8.10;1.00;;;;;;4986476;28;20204;-60
2023/03/16 08:59:01;;;;;;;4.17;2.30;;;8.80;1.00;;;;;;5002630;28;20205;-60
2023/03/16 09:01:28;;;;;;;4.43;2.20;;;8.70;1.00;;;;;;5001515;28;20615;-61
2023/03/16 09:03:55;;;;;;;4.30;2.17;;;8.60;1.00;;;;;;4985319;28;20320;-60
2023/03/16 09:06:23;;;;;;;3.60;2.37;;;8.60;1.00;;;;;;5000708;28;20201;-61
2023/03/16 09:08:50;;;;;;;4.00;2.20;;;8.50;1.00;;;;;;4988604;28;20574;-60
2023/03/16 09:11:18;;;;;;;2.77;2.03;;;9.00;1.00;;;;;;4985943;28;20218;-60
2023/03/16 09:13:46;;;;;;;4.77;2.40;;;8.70;1.00;;;;;;4988053;28;20525;-60
2023/03/16 09:16:15;;;;;;;2.83;2.57;;;8.50;1.00;;;;;;4985706;28;20220;-60
2023/03/16 09:18:43;;;;;;;3.20;2.50;;;8.10;1.00;;;;;;4987542;28;20357;-60
2023/03/16 09:21:12;;;;;;;3.57;2.50;;;7.90;1.00;;;;;;4988233;28;20201;-60
2023/03/16 09:23:41;;;;;;;3.93;2.37;;;8.20;1.00;;;;;;4987283;28;20689;-60
2023/03/16 09:26:13;;;;;;;3.40;2.70;;;8.30;1.00;;;;;;5000319;28;20277;-61
2023/03/16 09:28:41;;;;;;;5.07;2.70;;;8.10;1.00;;;;;;5002107;28;20220;-65
2023/03/16 09:31:16;;;;;;;2.53;2.00;;;8.30;1.00;;;;;;4989210;28;20208;-61
2023/03/16 09:33:43;;;;;;;4.70;2.13;;;8.20;1.00;;;;;;5001004;28;20230;-61
2023/03/16 09:36:12;;;;;;;5.53;2.23;;;8.30;1.00;;;;;;5003126;28;20236;-59
2023/03/16 09:38:41;;;;;;;2.07;1.87;;;8.30;1.00;;;;;;5002257;28;20275;-61
2023/03/16 09:41:29;;;;;;;3.30;2.23;;;8.20;1.00;;;;;;4986948;28;20612;-60
2023/03/16 09:44:06;;;;;;;4.50;2.00;;;7.90;1.00;;;;;;4986308;28;20190;-60
2023/03/16 09:46:42;;;;;;;4.53;2.53;;;8.20;1.00;;;;;;4985613;28;20292;-60
2023/03/16 09:49:14;;;;;;;2.43;2.07;;;8.10;1.00;;;;;;4987117;28;20240;-60
2023/03/16 09:52:05;;;;;;;4.30;2.80;;;8.00;1.00;;;;;;5003040;28;20198;-62
2023/03/16 09:55:15;;;;;;;3.17;2.80;;;8.00;1.00;;;;;;4982629;28;20225;-63
2023/03/16 09:57:44;;;;;;;4.40;2.60;;;8.00;1.00;;;;;;4999715;28;20274;-62
2023/03/16 10:00:44;;;;;;;4.67;3.00;;;8.10;1.00;;;;;;5000075;28;20649;-61
2023/03/16 10:03:16;;;;;;;3.93;2.50;;;8.00;1.00;;;;;;4989931;28;20241;-63
2023/03/16 10:05:54;;;;;;;3.23;2.63;;;8.10;1.00;;;;;;4966842;28;20300;-61
2023/03/16 10:08:24;;;;;;;4.17;2.67;;;8.20;1.00;;;;;;5003217;28;20189;-67
2023/03/16 10:10:59;;;;;;;4.40;2.07;;;8.10;1.00;;;;;;5001855;28;20275;-65
2023/03/16 10:13:36;;;;;;;3.20;2.10;;;8.10;1.00;;;;;;4983228;28;20197;-67
2023/03/16 10:16:12;;;;;;;2.67;2.00;;;8.10;1.00;;;;;;4985528;28;20269;-69
2023/03/16 10:18:43;;;;;;;3.17;2.40;;;8.20;1.00;;;;;;4986647;28;20239;-67
2023/03/16 10:21:13;;;;;;;3.73;2.30;;;8.20;1.00;;;;;;4987009;28;20265;-65
2023/03/16 10:23:41;;;;;;;2.63;2.37;;;8.20;1.00;;;;;;4984568;28;20874;-67
2023/03/16 10:26:25;;;;;;;3.03;2.10;;;8.30;1.00;;;;;;4985646;28;20205;-67
2023/03/16 10:28:53;;;;;;;5.10;2.60;;;8.10;1.00;;;;;;4999417;28;20209;-65
2023/03/16 10:31:23;;;;;;;3.13;2.23;;;8.10;1.00;;;;;;4986751;28;20288;-65
2023/03/16 10:33:57;;;;;;;3.50;2.57;;;8.10;1.00;;;;;;4985868;28;20232;-65
2023/03/16 10:36:28;;;;;;;3.17;2.40;;;8.10;1.00;;;;;;4984791;28;20284;-65
2023/03/16 10:39:06;;;;;;;4.23;2.30;;;8.40;1.00;;;;;;5000917;28;20202;-68
2023/03/16 10:41:36;;;;;;;5.57;2.20;;;8.60;1.00;;;;;;4998982;28;20208;-67
2023/03/16 10:44:40;;;;;;;2.30;2.00;;;8.60;1.00;;;;;;4999720;28;20295;-66
2023/03/16 10:47:17;;;;;;;3.67;2.10;;;8.60;1.00;;;;;;4974158;28;20251;-65
2023/03/16 10:49:50;;;;;;;4.87;2.27;;;8.90;1.00;;;;;;4984765;28;20283;-67
2023/03/16 10:52:42;;;;;;;4.80;2.33;;;8.80;1.00;;;;;;4985789;28;20244;-67
2023/03/16 10:55:16;;;;;;;2.83;1.90;;;8.70;1.00;;;;;;5000538;28;20817;-68
2023/03/16 10:57:52;;;;;;;3.20;2.43;;;8.40;1.00;;;;;;4983378;28;20673;-65
2023/03/16 11:00:28;;;;;;;3.13;1.80;;;8.50;1.00;;;;;;4986750;28;20396;-68
2023/03/16 11:02:58;;;;;;;4.03;2.30;;;8.50;1.00;;;;;;4966564;28;20251;-65
2023/03/16 11:05:31;;;;;;;4.90;2.33;;;8.60;1.00;;;;;;4986134;28;20556;-65
2023/03/16 11:08:19;;;;;;;3.03;2.20;;;8.50;1.00;;;;;;5001439;28;20296;-60
2023/03/16 11:10:56;;;;;;;3.30;2.13;;;8.60;1.00;;;;;;4975203;28;20200;-62
2023/03/16 11:13:32;;;;;;;2.87;2.30;;;8.80;1.00;;;;;;4995671;28;20195;-61
2023/03/16 11:16:16;;;;;;;2.63;1.97;;;8.70;1.00;;;;;;4983131;28;20372;-62
2023/03/16 11:18:48;;;;;;;5.07;2.10;;;8.90;1.00;;;;;;4984445;28;20229;-66
2023/03/16 11:21:26;;;;;;;3.43;2.23;;;9.20;1.00;;;;;;5002063;28;20205;-59
2023/03/16 11:23:55;;;;;;;3.03;2.13;;;9.40;1.00;;;;;;4984973;28;20201;-61
2023/03/16 11:26:34;;;;;;;4.73;2.20;;;9.30;1.00;;;;;;4985158;28;20691;-60
2023/03/16 11:29:19;;;;;;;3.30;2.10;;;9.30;1.00;;;;;;5004852;28;20714;-60
2023/03/16 11:31:49;;;;;;;2.77;1.90;;;9.50;1.00;;;;;;4988029;28;20205;-61
2023/03/16 11:34:37;;;;;;;5.93;2.10;;;9.10;1.00;;;;;;5004446;28;20201;-60
2023/03/16 11:37:18;;;;;;;4.67;2.17;;;9.70;1.00;;;;;;4984907;28;20630;-60
2023/03/16 11:39:59;;;;;;;3.37;2.30;;;9.90;1.00;;;;;;4989502;28;20194;-63
2023/03/16 11:42:28;;;;;;;2.80;2.10;;;9.80;1.00;;;;;;4988347;28;20200;-60
2023/03/16 11:44:58;;;;;;;3.00;1.93;;;9.30;1.00;;;;;;4990107;28;20833;-61
2023/03/16 11:47:35;;;;;;;3.40;1.90;;;9.10;1.00;;;;;;4986351;28;20197;-61
2023/03/16 11:50:42;;;;;;;4.83;1.93;;;9.10;1.00;;;;;;5000877;28;20360;-59
2023/03/16 11:53:38;;;;;;;2.43;2.00;;;9.10;1.00;;;;;;4986607;28;20630;-61
2023/03/16 11:56:23;;;;;;;2.60;1.97;;;8.90;1.00;;;;;;4973002;28;20640;-61
2023/03/16 11:59:17;;;;;;;2.77;2.10;;;8.90;1.00;;;;;;4986471;28;20300;-59
2023/03/16 12:02:17;;;;;;;3.30;1.90;;;9.00;1.00;;;;;;4984351;28;20202;-61
2023/03/16 12:05:15;;;;;;;3.43;2.23;;;9.10;1.00;;;;;;5001210;28;20201;-60
2023/03/16 12:07:51;;;;;;;3.73;1.80;;;9.10;1.00;;;;;;5003094;28;20644;-60
2023/03/16 12:10:44;;;;;;;2.20;2.00;;;9.20;1.00;;;;;;4987218;28;20193;-60
2023/03/16 12:13:32;;;;;;;2.90;2.07;;;8.90;1.00;;;;;;4984047;28;20206;-60
2023/03/16 12:16:16;;;;;;;2.50;2.00;;;9.00;1.00;;;;;;4988051;28;20667;-60
2023/03/16 12:18:49;;;;;;;4.03;2.07;;;9.10;1.00;;;;;;4990610;28;20201;-61
2023/03/16 12:21:25;;;;;;;4.70;2.50;;;9.10;1.00;;;;;;4989859;28;20197;-64
2023/03/16 12:23:58;;;;;;;2.73;2.00;;;9.00;1.00;;;;;;5004242;28;20657;-60
2023/03/16 12:26:31;;;;;;;4.30;2.60;;;9.10;1.00;;;;;;5004011;28;21136;-61
2023/03/16 12:29:01;;;;;;;2.60;1.90;;;9.10;1.00;;;;;;5003197;28;20708;-60
2023/03/16 12:31:46;;;;;;;2.93;2.27;;;9.10;1.00;;;;;;5004428;28;20311;-59
2023/03/16 12:34:39;;;;;;;3.93;2.40;;;9.40;1.00;;;;;;5003859;28;20220;-59
2023/03/16 12:37:46;;;;;;;5.60;2.50;;;10.00;1.00;;;;;;4987679;28;20210;-61
2023/03/16 12:40:32;;;;;;;2.03;1.83;;;10.50;1.00;;;;;;4986629;28;20189;-58
2023/03/16 12:43:23;;;;;;;3.17;2.20;;;10.40;1.00;;;;;;4988128;28;20201;-60
2023/03/16 12:46:12;;;;;;;3.67;2.13;;;10.50;1.00;;;;;;4986228;28;20235;-59
2023/03/16 12:48:44;;;;;;;2.53;2.30;;;10.70;1.00;;;;;;4987667;28;20204;-60
2023/03/16 12:51:12;;;;;;;4.73;2.37;;;10.40;1.00;;;;;;4987146;28;20205;-59
2023/03/16 12:53:51;;;;;;;3.27;2.00;;;10.50;1.00;;;;;;4986970;28;20769;-60
2023/03/16 12:56:26;;;;;;;4.53;2.50;;;10.90;1.00;;;;;;4987315;28;20282;-60
2023/03/16 12:58:59;;;;;;;2.10;1.70;;;11.00;1.00;;;;;;4984047;28;20261;-59
2023/03/16 13:01:29;;;;;;;2.73;2.20;;;10.90;1.00;;;;;;4971210;28;20494;-60
2023/03/16 13:04:20;;;;;;;2.30;1.80;;;11.10;1.00;;;;;;4988243;28;20228;-59
2023/03/16 13:06:51;;;;;;;3.20;2.03;;;10.70;1.00;;;;;;4986251;28;20586;-61
2023/03/16 13:09:27;;;;;;;5.07;1.97;;;10.90;1.00;;;;;;4988215;28;20252;-59
2023/03/16 13:11:54;;;;;;;3.73;1.90;;;10.70;1.00;;;;;;5002854;28;20200;-61
2023/03/16 13:14:39;;;;;;;2.23;1.90;;;10.50;1.00;;;;;;5002698;28;20217;-59
2023/03/16 13:17:15;;;;;;;5.37;2.20;;;10.90;1.00;;;;;;5003371;28;20671;-59
2023/03/16 13:19:45;;;;;;;1.97;1.77;;;10.70;1.00;;;;;;5001980;28;20688;-59
2023/03/16 13:22:30;;;;;;;7.33;2.00;;;10.70;1.00;;;;;;5002998;28;20206;-60
2023/03/16 13:25:15;;;;;;;2.93;1.60;;;10.50;1.00;;;;;;4998566;28;20197;-61
2023/03/16 13:27:45;;;;;;;6.00;2.10;;;10.50;1.00;;;;;;4984132;28;20217;-59
2023/03/16 13:30:22;;;;;;;3.33;1.90;;;10.20;1.00;;;;;;5001509;28;20252;-59
2023/03/16 13:33:00;;;;;;;4.47;2.10;;;10.40;1.00;;;;;;4987223;28;20750;-60
2023/03/16 13:35:30;;;;;;;5.13;1.93;;;10.30;1.00;;;;;;4984937;28;20315;-61
2023/03/16 13:38:04;;;;;;;4.63;1.70;;;10.30;1.00;;;;;;4984533;28;20202;-59